Dunlow, WV (25511)

05:20 PM EDT del 30 Giugno 2015 (GMT -0400)
Near Salt Rock Elementary School | | Change Station
CLOSE
Current Station
Stazione meteo personale
Location: Salt Rock, WV
Altitudine: 627 ft
Stazioni meteo nelle vicinanze
Avvisi attivi: Severe Thunderstorm Watch

Alt. 627 ft 38.32 °N, 82.23 °W | Updated 47 seconds ago

Sereno
Sereno
78.6 °F
Sembra 81 °F
N
0.0
Vento Variabile Vento da SSO
Gusts 1.0 mph

Oggi
Massima -- | Minima -- °F
--% Possibilità di precip.
Ieri
Massima -- | Minima -- °F
Precip. -- in
6:09 AM 8:56 PM
Gobba a ponente, 98% visible
Pressione 29.87 in
Visibilità 10.0 miglia
Nuvole Sereno
Indice di calore 81 °F
Punto di rugiada 71 °F
Umidità 78%
Piovosità in
Spessore del manto nevoso Non disponibile.
Raggi UV 5 fuori da 12
Polline 3.40 fuori da 12
Qualità dell'aria Non disponibile.
Flu Activity Sporadic
METAR KSJS 302115Z AUTO 00000KT 10SM CLR 25/19 A2987 RMK AO2 T02500189

More Conditions Fewer Conditions

Pressione 29.87 in
Visibilità 10.0 miglia
Nuvole Sereno
Indice di calore 81 °F
Punto di rugiada 71 °F
Umidità 78%
Piovosità in
Spessore del manto nevoso Non disponibile.
Raggi UV 5 fuori da 12
Polline 3.40 fuori da 12
Qualità dell'aria Non disponibile.
Flu Activity Sporadic
METAR KSJS 302115Z AUTO 00000KT 10SM CLR 25/19 A2987 RMK AO2 T02500189

More Conditions Fewer Conditions

10-Day Weather Forecast

×

Almanac

Astronomia

Jun. 30, 2015 Alba Tramonto
Ora attuale
Crepuscolo civile
Crepuscolo nautico
Crepuscolo astronomico
Luna
Estensione della luce visibile
Lunghezza del giorno
Tomorrow will be .
, % of the Moon is Illuminated

Gli estremi di oggi

State Highs State Lows

Community

WunderPhotos

Upload Photos

1,834,077 foto caricate!

WunderBlogs® & News

Nearby

Qualità dell'aria

  Qualità dell'aria Indice AQ Inquinante
Not available.

Profondità neve

Stazione Profondità Altitudine

Attività sismica

Città  Distanza Mag. Data & Ora
Minimo Magnitudo Mostrato è 2.5.

Temperature delle acque costiere

Località Temperatura

Stations

Stazioni meteo nelle vicinanze

Ubicazione della stazione Temp. Raffreddamento del vento Punto di rugiada Umidità Vento Precip. Alt. Aggiornato Tipo
                   
Severe Thunderstorm Watch
Statement as of 05:03 PM EDT del 30 Giugno 2015

Severe Thunderstorm Watch 373 remains in effect until 900 PM EDT

WV
. West Virginia counties included are

Boone Braxton Cabell
Calhoun Clay Fayette
Gilmer Kanawha Lewis
Lincoln Logan McDowell
Mingo Nicholas Pocahontas
Putnam Raleigh Randolph
Roane Upshur Wayne
Webster Wyoming